Time;durP1;ratioP1;P1;durP2;ratioP2;P2;SDS_P1;SDS_P2;PMS_P1;PMS_P2;Temp;Humidity;BMP_temperature;BMP_pressure;BME280_temperature;BME280_humidity;BME280_pressure;Samples;Min_cycle;Max_cycle;Signal;HPM_P1;HPM_P2
2021/01/28 00:00:27;;;;;;;38.63;19.17;;;-0.50;95.60;;;;;;5052729;28;20528;-94
2021/01/28 00:02:53;;;;;;;42.13;17.13;;;-0.40;95.60;;;;;;5040013;28;20370;-93
2021/01/28 00:05:20;;;;;;;39.83;19.10;;;-0.40;95.60;;;;;;5056614;28;20036;-94
2021/01/28 00:07:46;;;;;;;38.13;17.88;;;-0.40;95.50;;;;;;5039602;28;20025;-93
2021/01/28 00:10:12;;;;;;;31.83;16.95;;;-0.40;95.50;;;;;;5056223;28;20035;-93
2021/01/28 00:12:38;;;;;;;35.92;16.95;;;-0.50;95.20;;;;;;5039503;28;20025;-93
2021/01/28 00:15:06;;;;;;;38.05;18.75;;;-0.40;95.40;;;;;;5039648;28;20051;-93
2021/01/28 00:17:32;;;;;;;38.35;17.95;;;-0.40;95.30;;;;;;5039735;28;20021;-93
2021/01/28 00:19:57;;;;;;;32.63;17.48;;;-0.40;95.30;;;;;;5057033;28;20048;-93
2021/01/28 00:22:23;;;;;;;34.40;17.23;;;-0.40;95.30;;;;;;5056386;28;20048;-93
2021/01/28 00:24:49;;;;;;;32.05;17.15;;;-0.40;95.30;;;;;;5056201;28;20124;-93
2021/01/28 00:27:14;;;;;;;28.80;16.00;;;-0.40;95.20;;;;;;5055998;28;20028;-94
2021/01/28 00:29:40;;;;;;;31.70;15.68;;;-0.50;95.10;;;;;;5047378;28;20042;-95
2021/01/28 00:32:06;;;;;;;26.80;15.63;;;-0.50;95.10;;;;;;5016199;28;20057;-94
2021/01/28 00:34:32;;;;;;;26.85;14.90;;;-0.60;95.00;;;;;;5016144;28;20021;-93
2021/01/28 00:36:59;;;;;;;31.05;15.43;;;-0.50;95.30;;;;;;5016270;28;20084;-94
2021/01/28 00:39:24;;;;;;;30.52;15.65;;;-0.50;95.20;;;;;;5016056;28;20124;-94
2021/01/28 00:41:50;;;;;;;31.02;16.60;;;-0.50;95.20;;;;;;4999708;28;20050;-93
2021/01/28 00:44:16;;;;;;;29.17;15.23;;;-0.50;95.30;;;;;;5015861;28;20541;-93
2021/01/28 00:46:41;;;;;;;35.97;17.48;;;-0.50;95.20;;;;;;5016016;28;20025;-93
2021/01/28 00:49:07;;;;;;;36.65;17.52;;;-0.50;95.20;;;;;;5015811;28;20034;-93
2021/01/28 00:51:33;;;;;;;32.03;17.88;;;-0.50;95.30;;;;;;5015921;28;20030;-94
2021/01/28 00:53:59;;;;;;;36.00;18.92;;;-0.50;95.20;;;;;;5015894;28;20124;-94
2021/01/28 00:56:25;;;;;;;37.00;20.88;;;-0.50;95.30;;;;;;5016240;28;20029;-93
2021/01/28 00:58:50;;;;;;;34.55;19.63;;;-0.50;95.30;;;;;;5015663;28;20032;-94
2021/01/28 01:01:17;;;;;;;38.15;20.30;;;-0.60;95.30;;;;;;5015741;28;20030;-93
2021/01/28 01:03:42;;;;;;;55.88;29.30;;;-0.60;95.40;;;;;;5015437;28;20103;-94
2021/01/28 01:06:09;;;;;;;50.17;26.00;;;-0.60;95.40;;;;;;5015593;28;20054;-94
2021/01/28 01:08:35;;;;;;;43.72;23.55;;;-0.60;95.40;;;;;;5015267;28;20092;-94
2021/01/28 01:11:05;;;;;;;72.15;36.65;;;-0.70;95.50;;;;;;5029762;28;20022;-92
2021/01/28 01:13:34;;;;;;;46.65;24.13;;;-0.70;95.60;;;;;;5018804;28;20037;-93
2021/01/28 01:16:01;;;;;;;52.13;26.67;;;-0.70;95.70;;;;;;5015596;28;20034;-94
2021/01/28 01:18:30;;;;;;;45.40;22.17;;;-0.60;95.80;;;;;;5015421;28;20117;-94
2021/01/28 01:20:57;;;;;;;34.33;18.30;;;-0.60;95.80;;;;;;5015078;28;20026;-93
2021/01/28 01:23:23;;;;;;;36.05;18.02;;;-0.60;95.70;;;;;;5015294;28;20022;-93
2021/01/28 01:25:49;;;;;;;38.47;18.23;;;-0.60;95.70;;;;;;5015126;28;20026;-93
2021/01/28 01:28:16;;;;;;;42.72;21.70;;;-0.50;95.70;;;;;;5015074;28;20025;-93
2021/01/28 01:30:41;;;;;;;35.95;17.45;;;-0.60;95.60;;;;;;5028176;28;20056;-93
2021/01/28 01:33:07;;;;;;;34.20;17.65;;;-0.60;95.50;;;;;;5018272;28;20383;-91
2021/01/28 01:35:33;;;;;;;32.80;15.82;;;-0.60;95.60;;;;;;5018860;28;20374;-92
2021/01/28 01:38:00;;;;;;;30.13;16.05;;;-0.60;95.50;;;;;;5034810;28;20538;-93
2021/01/28 01:40:35;;;;;;;45.17;20.20;;;-0.60;95.50;;;;;;5034825;28;20029;-92
2021/01/28 01:43:03;;;;;;;81.97;33.92;;;-0.60;95.50;;;;;;5034729;28;20029;-93
2021/01/28 01:45:44;;;;;;;71.88;34.88;;;-0.60;95.40;;;;;;5034830;28;20116;-93
2021/01/28 01:48:23;;;;;;;45.95;25.33;;;-0.70;95.40;;;;;;5034677;28;20040;-93
2021/01/28 01:50:55;;;;;;;37.58;21.98;;;-0.70;95.50;;;;;;5034456;28;20483;-93
2021/01/28 01:53:34;;;;;;;41.15;24.00;;;-0.70;95.40;;;;;;5034793;28;20367;-93
2021/01/28 01:56:15;;;;;;;27.75;17.42;;;-0.60;95.50;;;;;;5034970;28;20052;-93
2021/01/28 01:58:52;;;;;;;27.20;15.25;;;-0.70;95.30;;;;;;5054347;28;20029;-93
2021/01/28 02:01:22;;;;;;;31.45;19.17;;;-0.70;95.10;;;;;;5054273;28;20028;-93
2021/01/28 02:03:52;;;;;;;29.17;17.08;;;-0.70;95.20;;;;;;5054257;28;20482;-93
2021/01/28 02:06:46;;;;;;;27.95;16.67;;;-0.70;95.30;;;;;;5051272;28;20032;-93
2021/01/28 02:09:12;;;;;;;35.30;17.77;;;-0.60;95.20;;;;;;5013743;28;20376;-93
2021/01/28 02:11:41;;;;;;;30.38;16.38;;;-0.70;95.30;;;;;;5017525;28;20032;-93
2021/01/28 02:14:09;;;;;;;40.40;20.73;;;-0.60;95.40;;;;;;5034154;28;20025;-92
2021/01/28 02:16:40;;;;;;;43.20;20.70;;;-0.60;95.20;;;;;;5034466;28;20036;-92
2021/01/28 02:19:53;;;;;;;35.70;17.38;;;-0.60;95.20;;;;;;5034019;28;20375;-93
2021/01/28 02:22:36;;;;;;;36.78;18.40;;;-0.60;95.30;;;;;;4973062;28;20033;-93
2021/01/28 02:25:19;;;;;;;30.00;14.90;;;-0.60;95.20;;;;;;5033030;28;20498;-93
2021/01/28 02:27:45;;;;;;;32.38;15.55;;;-0.60;95.10;;;;;;5033971;28;20029;-92
2021/01/28 02:30:15;;;;;;;27.92;13.88;;;-0.60;95.10;;;;;;5033906;28;20041;-93
2021/01/28 02:32:40;;;;;;;33.85;17.00;;;-0.60;95.20;;;;;;5033673;28;20021;-93
2021/01/28 02:35:09;;;;;;;56.13;22.80;;;-0.60;95.00;;;;;;5017564;28;20040;-92
2021/01/28 02:37:35;;;;;;;63.65;24.67;;;-0.60;95.10;;;;;;5033610;28;20036;-93
2021/01/28 02:40:00;;;;;;;67.15;25.13;;;-0.70;95.10;;;;;;5033683;28;20029;-93
2021/01/28 02:42:30;;;;;;;33.70;16.45;;;-0.70;94.90;;;;;;5033611;28;20025;-93
2021/01/28 02:44:56;;;;;;;40.58;21.38;;;-0.70;95.00;;;;;;5033545;28;20029;-92
2021/01/28 02:47:22;;;;;;;51.35;23.30;;;-0.60;95.10;;;;;;5034509;28;20440;-93
2021/01/28 02:49:49;;;;;;;43.10;21.77;;;-0.70;95.10;;;;;;5033884;28;20013;-92
2021/01/28 02:52:15;;;;;;;52.65;23.60;;;-0.70;95.20;;;;;;5033216;28;20026;-92
2021/01/28 02:54:44;;;;;;;67.45;29.38;;;-0.70;95.10;;;;;;5048537;28;20052;-92
2021/01/28 02:57:10;;;;;;;52.58;24.45;;;-0.70;95.00;;;;;;5034693;28;20037;-92
2021/01/28 02:59:36;;;;;;;41.63;20.80;;;-0.60;95.20;;;;;;5033367;28;20029;-92
2021/01/28 03:02:15;;;;;;;44.70;23.15;;;-0.70;95.20;;;;;;5033425;28;20071;-93
2021/01/28 03:04:41;;;;;;;48.88;22.30;;;-0.70;95.20;;;;;;5033272;28;20231;-93
2021/01/28 03:07:09;;;;;;;50.25;24.02;;;-0.60;95.20;;;;;;5033339;28;20049;-92
2021/01/28 03:09:35;;;;;;;59.72;26.17;;;-0.60;95.20;;;;;;5033305;28;20028;-92
2021/01/28 03:12:02;;;;;;;45.88;21.83;;;-0.60;95.30;;;;;;5033119;28;20018;-92
2021/01/28 03:14:28;;;;;;;29.80;16.42;;;-0.60;95.30;;;;;;5033510;28;20022;-92
2021/01/28 03:16:54;;;;;;;28.13;15.85;;;-0.60;95.40;;;;;;5033314;28;20032;-93
2021/01/28 03:19:21;;;;;;;37.25;19.80;;;-0.60;95.40;;;;;;5033214;28;20018;-93
2021/01/28 03:21:47;;;;;;;33.75;18.55;;;-0.60;95.50;;;;;;5032952;28;20036;-93
2021/01/28 03:24:13;;;;;;;37.78;19.50;;;-0.60;95.50;;;;;;5033201;28;20075;-92
2021/01/28 03:26:40;;;;;;;34.08;17.88;;;-0.50;95.50;;;;;;5033359;28;20355;-92
2021/01/28 03:29:09;;;;;;;33.78;20.02;;;-0.50;95.50;;;;;;5032880;28;20033;-93
2021/01/28 03:31:34;;;;;;;31.67;18.80;;;-0.50;95.40;;;;;;5032115;28;20498;-93
2021/01/28 03:34:00;;;;;;;33.13;17.30;;;-0.50;95.40;;;;;;5032514;28;20033;-93
2021/01/28 03:36:26;;;;;;;34.72;16.80;;;-0.50;95.50;;;;;;5033521;28;20026;-93
2021/01/28 03:38:52;;;;;;;33.00;16.63;;;-0.50;95.50;;;;;;5036901;28;20029;-92
2021/01/28 03:41:18;;;;;;;28.58;13.57;;;-0.50;95.50;;;;;;5036226;28;20025;-93
2021/01/28 03:43:44;;;;;;;27.00;14.90;;;-0.50;95.50;;;;;;5020185;28;20095;-93
2021/01/28 03:46:10;;;;;;;28.70;14.60;;;-0.60;95.40;;;;;;5036445;28;20394;-93
2021/01/28 03:48:36;;;;;;;30.23;14.63;;;-0.60;95.50;;;;;;5048012;28;20033;-93
2021/01/28 03:51:03;;;;;;;27.30;14.55;;;-0.50;95.60;;;;;;5039438;28;20112;-94
2021/01/28 03:53:29;;;;;;;32.08;15.68;;;-0.50;95.50;;;;;;5036256;28;20029;-93
2021/01/28 03:55:54;;;;;;;30.02;15.32;;;-0.60;95.50;;;;;;5056369;28;20450;-94
2021/01/28 03:58:20;;;;;;;29.95;13.82;;;-0.60;95.60;;;;;;5056205;28;20108;-93
2021/01/28 04:00:46;;;;;;;28.17;13.93;;;-0.60;95.70;;;;;;5038358;28;20459;-93
2021/01/28 04:03:12;;;;;;;27.77;13.48;;;-0.60;95.60;;;;;;5052877;28;20021;-93
2021/01/28 04:05:37;;;;;;;29.40;13.63;;;-0.50;95.60;;;;;;5017619;28;20041;-93
2021/01/28 04:08:04;;;;;;;29.20;13.40;;;-0.60;95.60;;;;;;5036253;28;20222;-93
2021/01/28 04:10:33;;;;;;;27.35;14.85;;;-0.60;95.60;;;;;;5036306;28;20116;-93
2021/01/28 04:12:59;;;;;;;27.73;13.98;;;-0.60;95.60;;;;;;5036076;28;20387;-94
2021/01/28 04:15:25;;;;;;;26.27;13.48;;;-0.60;95.60;;;;;;5036125;28;20022;-92
2021/01/28 04:17:52;;;;;;;25.65;13.80;;;-0.60;95.70;;;;;;5036131;28;20033;-93
2021/01/28 04:20:21;;;;;;;28.42;14.32;;;-0.60;95.60;;;;;;5036016;28;20080;-93
2021/01/28 04:22:47;;;;;;;26.13;13.73;;;-0.60;95.60;;;;;;5036356;28;20035;-93
2021/01/28 04:25:14;;;;;;;26.83;13.27;;;-0.60;95.70;;;;;;5036018;28;20120;-93
2021/01/28 04:27:40;;;;;;;27.17;12.85;;;-0.60;95.80;;;;;;5035813;28;20030;-93
2021/01/28 04:30:08;;;;;;;23.98;12.95;;;-0.60;96.00;;;;;;5035717;28;20137;-93
2021/01/28 04:32:33;;;;;;;29.35;14.13;;;-0.50;95.60;;;;;;5035686;28;20025;-93
2021/01/28 04:34:59;;;;;;;29.48;15.13;;;-0.60;95.60;;;;;;5052481;28;20460;-93
2021/01/28 04:37:25;;;;;;;26.75;13.55;;;-0.50;95.60;;;;;;5047987;28;20018;-92
2021/01/28 04:39:52;;;;;;;23.33;12.57;;;-0.50;95.70;;;;;;5046503;28;20033;-95
2021/01/28 04:42:23;;;;;;;26.17;12.50;;;-0.60;95.70;;;;;;5019522;28;20028;-94
2021/01/28 04:44:50;;;;;;;23.75;13.43;;;-0.50;95.70;;;;;;5019102;28;20053;-93
2021/01/28 04:47:18;;;;;;;25.02;12.73;;;-0.60;95.60;;;;;;5018409;28;20064;-94
2021/01/28 04:49:53;;;;;;;26.88;13.50;;;-0.60;95.60;;;;;;5018852;28;20068;-93
2021/01/28 04:52:20;;;;;;;24.02;12.93;;;-0.60;95.60;;;;;;5019201;28;20022;-94
2021/01/28 04:54:46;;;;;;;25.33;12.93;;;-0.50;95.60;;;;;;5019454;28;20025;-94
2021/01/28 04:57:13;;;;;;;22.98;11.98;;;-0.50;95.60;;;;;;5019082;28;20021;-93
2021/01/28 04:59:44;;;;;;;21.75;11.55;;;-0.60;95.60;;;;;;5019172;28;20021;-94
2021/01/28 05:02:22;;;;;;;22.33;12.13;;;-0.60;95.60;;;;;;5035476;28;20029;-95
2021/01/28 05:04:59;;;;;;;25.15;13.00;;;-0.60;95.60;;;;;;5018875;28;20430;-95
2021/01/28 05:07:29;;;;;;;28.10;12.63;;;-0.60;95.60;;;;;;5018871;28;20032;-95
2021/01/28 05:10:17;;;;;;;26.63;13.25;;;-0.60;95.60;;;;;;5018783;28;20024;-95
2021/01/28 05:12:54;;;;;;;25.92;13.65;;;-0.50;95.60;;;;;;5035482;28;20021;-95
2021/01/28 05:15:37;;;;;;;32.95;14.27;;;-0.60;95.50;;;;;;5018997;28;20026;-95
2021/01/28 05:18:26;;;;;;;28.45;14.18;;;-0.60;95.50;;;;;;5018661;28;20113;-94
2021/01/28 05:21:00;;;;;;;24.45;12.85;;;-0.60;95.50;;;;;;5018619;28;20025;-95
2021/01/28 05:23:31;;;;;;;25.17;12.60;;;-0.60;95.40;;;;;;5036691;28;20048;-96
2021/01/28 05:25:57;;;;;;;23.55;13.07;;;-0.60;95.50;;;;;;5035048;28;20029;-93
2021/01/28 05:28:28;;;;;;;25.35;12.50;;;-0.60;95.40;;;;;;5035132;28;20026;-93
2021/01/28 05:30:55;;;;;;;26.02;11.85;;;-0.60;95.50;;;;;;5018415;28;20049;-94
2021/01/28 05:33:50;;;;;;;22.98;11.85;;;-0.60;95.40;;;;;;5019679;28;20049;-95
2021/01/28 05:36:22;;;;;;;22.23;12.07;;;-0.60;95.40;;;;;;5034893;28;20025;-95
2021/01/28 05:38:54;;;;;;;23.10;12.57;;;-0.60;95.40;;;;;;5018472;28;20490;-96
2021/01/28 05:41:33;;;;;;;24.60;12.05;;;-0.60;95.40;;;;;;5018443;28;20120;-95
2021/01/28 05:44:18;;;;;;;21.00;11.95;;;-0.60;95.40;;;;;;5018410;28;20064;-95
2021/01/28 05:47:03;;;;;;;23.13;11.70;;;-0.60;95.20;;;;;;5018132;28;20422;-96
2021/01/28 05:49:29;;;;;;;24.10;13.20;;;-0.50;95.40;;;;;;5034539;28;20083;-95
2021/01/28 05:51:55;;;;;;;27.13;13.35;;;-0.60;95.30;;;;;;5018982;28;20025;-95
2021/01/28 05:54:24;;;;;;;24.08;12.80;;;-0.60;95.20;;;;;;5018331;28;20022;-94
2021/01/28 05:57:22;;;;;;;24.20;13.20;;;-0.50;95.30;;;;;;5017901;28;20022;-95
2021/01/28 05:59:53;;;;;;;17.88;10.80;;;-0.60;95.20;;;;;;5018010;28;20036;-94
2021/01/28 06:02:37;;;;;;;25.67;13.57;;;-0.50;95.30;;;;;;5034285;28;20475;-93
2021/01/28 06:05:37;;;;;;;22.88;12.57;;;-0.50;95.20;;;;;;5034359;28;20030;-96
2021/01/28 06:08:44;;;;;;;26.35;14.15;;;-0.50;95.30;;;;;;5009759;28;20030;-94
2021/01/28 06:11:40;;;;;;;26.00;13.73;;;-0.50;95.30;;;;;;5000900;28;20073;-94
2021/01/28 06:14:17;;;;;;;25.30;13.77;;;-0.60;95.30;;;;;;5034170;28;20032;-94
2021/01/28 06:17:08;;;;;;;37.28;16.65;;;-0.50;95.10;;;;;;5034074;28;20036;-94
2021/01/28 06:19:57;;;;;;;39.50;17.80;;;-0.60;95.20;;;;;;5034063;28;20033;-94
2021/01/28 06:22:59;;;;;;;29.25;14.98;;;-0.50;95.20;;;;;;5057324;28;20017;-94
2021/01/28 06:25:41;;;;;;;42.00;18.85;;;-0.50;95.20;;;;;;5034001;28;20025;-94
2021/01/28 06:28:12;;;;;;;31.45;15.23;;;-0.50;95.10;;;;;;5033913;28;20056;-93
2021/01/28 06:30:51;;;;;;;31.75;14.65;;;-0.50;95.20;;;;;;5034925;28;20050;-93
2021/01/28 06:33:34;;;;;;;30.13;15.00;;;-0.50;95.10;;;;;;5018909;28;20036;-94
2021/01/28 06:36:20;;;;;;;34.90;17.20;;;-0.50;95.10;;;;;;5034776;28;20056;-93
2021/01/28 06:39:05;;;;;;;49.80;21.17;;;-0.50;95.20;;;;;;5017272;28;20025;-93
2021/01/28 06:41:35;;;;;;;52.97;23.67;;;-0.50;95.10;;;;;;5034900;28;20506;-94
2021/01/28 06:44:21;;;;;;;58.85;24.92;;;-0.50;95.10;;;;;;5033870;28;20036;-93
2021/01/28 06:47:00;;;;;;;30.83;15.93;;;-0.50;95.00;;;;;;5017312;28;20041;-92
2021/01/28 06:49:34;;;;;;;38.20;17.60;;;-0.50;95.20;;;;;;5017387;28;20028;-93
2021/01/28 06:52:18;;;;;;;35.90;18.60;;;-0.50;95.10;;;;;;5034999;28;20021;-94
2021/01/28 06:55:15;;;;;;;34.60;16.92;;;-0.50;95.10;;;;;;5034728;28;20067;-94
2021/01/28 06:58:00;;;;;;;36.42;18.77;;;-0.50;95.20;;;;;;5017143;28;20029;-94
2021/01/28 07:00:31;;;;;;;43.40;21.92;;;-0.50;95.20;;;;;;5033796;28;20471;-93
2021/01/28 07:03:22;;;;;;;44.42;22.52;;;-0.50;95.20;;;;;;5034742;28;20105;-93
2021/01/28 07:06:09;;;;;;;45.47;21.48;;;-0.50;95.20;;;;;;5016928;28;20176;-94
2021/01/28 07:09:14;;;;;;;42.92;22.33;;;-0.40;95.20;;;;;;5034416;28;20476;-94
2021/01/28 07:11:42;;;;;;;43.25;20.10;;;-0.40;95.10;;;;;;5008603;28;20061;-93
2021/01/28 07:14:13;;;;;;;38.75;19.17;;;-0.40;95.10;;;;;;5017080;28;20018;-93
2021/01/28 07:17:02;;;;;;;36.17;17.75;;;-0.40;95.10;;;;;;5034364;28;20033;-93
2021/01/28 07:19:31;;;;;;;32.78;16.45;;;-0.40;95.00;;;;;;5008999;28;20029;-94
2021/01/28 07:21:57;;;;;;;40.90;19.52;;;-0.40;95.10;;;;;;5016579;28;20398;-94
2021/01/28 07:24:31;;;;;;;36.25;18.17;;;-0.40;95.00;;;;;;5016702;28;20029;-93
2021/01/28 07:27:09;;;;;;;40.13;17.80;;;-0.40;95.10;;;;;;5034098;28;20386;-93
2021/01/28 07:29:44;;;;;;;36.55;16.95;;;-0.30;95.10;;;;;;5033152;28;20128;-93
2021/01/28 07:32:23;;;;;;;37.33;17.38;;;-0.30;95.00;;;;;;5033864;28;20032;-94
2021/01/28 07:35:35;;;;;;;37.72;18.52;;;-0.40;94.70;;;;;;5033619;28;20028;-94
2021/01/28 07:38:27;;;;;;;34.72;17.52;;;-0.40;95.00;;;;;;5014180;28;20041;-94
2021/01/28 07:41:09;;;;;;;37.67;18.23;;;-0.40;95.00;;;;;;5023298;28;20376;-94
2021/01/28 07:43:38;;;;;;;41.45;18.65;;;-0.30;95.10;;;;;;5034208;28;20379;-94
2021/01/28 07:46:16;;;;;;;36.78;19.02;;;-0.30;95.00;;;;;;5016683;28;20034;-93
2021/01/28 07:48:43;;;;;;;39.17;20.90;;;-0.30;95.30;;;;;;5016600;28;20025;-93
2021/01/28 07:51:27;;;;;;;32.80;16.67;;;-0.20;95.10;;;;;;5034252;28;20412;-94
2021/01/28 07:53:53;;;;;;;35.58;17.70;;;-0.20;95.00;;;;;;5033452;28;20057;-94
2021/01/28 07:56:39;;;;;;;30.70;16.10;;;-0.20;94.90;;;;;;5016602;28;20048;-91
2021/01/28 07:59:16;;;;;;;31.27;16.08;;;-0.20;94.80;;;;;;5033796;28;20104;-92
2021/01/28 08:01:45;;;;;;;38.17;20.73;;;-0.20;94.80;;;;;;5017915;28;20032;-93
2021/01/28 08:04:20;;;;;;;49.53;25.98;;;-0.20;94.70;;;;;;5027155;28;20382;-91
2021/01/28 08:06:48;;;;;;;44.50;23.48;;;-0.20;94.80;;;;;;5037183;28;20032;-92
2021/01/28 08:09:14;;;;;;;35.90;18.55;;;-0.20;94.80;;;;;;5015701;28;20034;-89
2021/01/28 08:11:47;;;;;;;36.40;18.75;;;-0.30;94.60;;;;;;5016022;28;20436;-89
2021/01/28 08:14:14;;;;;;;38.40;18.45;;;-0.30;94.70;;;;;;5016285;28;20414;-88
2021/01/28 08:16:41;;;;;;;45.97;21.73;;;-0.20;94.90;;;;;;5016465;28;20021;-86
2021/01/28 08:19:17;;;;;;;51.42;23.35;;;-0.20;94.80;;;;;;5033615;28;20018;-90
2021/01/28 08:21:43;;;;;;;53.30;25.58;;;-0.20;94.90;;;;;;5016145;28;20037;-87
2021/01/28 08:24:34;;;;;;;52.17;24.48;;;-0.20;94.60;;;;;;5018499;28;20025;-87
2021/01/28 08:27:19;;;;;;;40.50;20.52;;;-0.20;94.70;;;;;;5019624;28;20433;-90
2021/01/28 08:29:59;;;;;;;38.78;18.98;;;-0.20;94.70;;;;;;5019474;28;20488;-91
2021/01/28 08:32:30;;;;;;;42.40;20.73;;;-0.10;94.80;;;;;;5019667;28;20026;-91
2021/01/28 08:35:21;;;;;;;56.13;25.85;;;-0.10;94.80;;;;;;5019600;28;20057;-91
2021/01/28 08:37:46;;;;;;;46.72;22.88;;;-0.20;94.70;;;;;;5019489;28;20116;-89
2021/01/28 08:40:22;;;;;;;45.65;22.10;;;-0.10;94.80;;;;;;5019727;28;20124;-91
2021/01/28 08:42:48;;;;;;;45.92;22.25;;;-0.10;94.90;;;;;;5019334;28;20022;-90
2021/01/28 08:45:24;;;;;;;59.35;26.10;;;-0.10;94.90;;;;;;5036786;28;20033;-88
2021/01/28 08:48:03;;;;;;;69.18;29.50;;;-0.10;94.90;;;;;;5019080;28;20021;-89
2021/01/28 08:50:30;;;;;;;51.40;24.52;;;-0.10;95.00;;;;;;5019081;28;20033;-90
2021/01/28 08:53:11;;;;;;;44.80;23.48;;;0.00;94.80;;;;;;5036962;28;20017;-89
2021/01/28 08:55:38;;;;;;;33.45;16.95;;;-0.10;94.70;;;;;;5036648;28;20021;-89
2021/01/28 08:58:16;;;;;;;45.05;23.90;;;0.00;95.00;;;;;;5036829;28;20025;-91
2021/01/28 09:00:49;;;;;;;30.83;16.38;;;0.00;94.70;;;;;;5035603;28;20545;-90
2021/01/28 09:03:25;;;;;;;33.22;17.08;;;0.00;94.50;;;;;;5018934;28;20438;-92
2021/01/28 09:05:52;;;;;;;33.90;17.52;;;0.00;94.80;;;;;;5019112;28;20026;-90
2021/01/28 09:08:39;;;;;;;34.83;17.58;;;0.00;94.60;;;;;;5036455;28;20040;-89
2021/01/28 09:11:24;;;;;;;34.97;18.52;;;0.10;94.70;;;;;;5036841;28;20021;-92
2021/01/28 09:14:36;;;;;;;31.75;16.10;;;0.10;94.70;;;;;;5019250;28;20025;-91
2021/01/28 09:17:38;;;;;;;35.25;16.75;;;0.00;94.70;;;;;;5015752;28;20030;-91
2021/01/28 09:20:05;;;;;;;33.90;17.67;;;0.00;94.60;;;;;;5002317;28;20532;-94
2021/01/28 09:22:40;;;;;;;31.83;16.58;;;0.00;94.60;;;;;;5018511;28;20022;-89
2021/01/28 09:25:20;;;;;;;35.42;18.73;;;-0.10;94.30;;;;;;5036094;28;20072;-90
2021/01/28 09:28:18;;;;;;;39.58;19.73;;;-0.10;94.40;;;;;;5035935;28;20585;-91
2021/01/28 09:30:46;;;;;;;37.90;17.77;;;-0.10;94.80;;;;;;4972315;28;20073;-90
2021/01/28 09:33:27;;;;;;;37.28;17.98;;;0.00;95.00;;;;;;4999322;28;20367;-90
2021/01/28 09:36:25;;;;;;;32.70;16.90;;;0.00;94.80;;;;;;4998882;28;20169;-89
2021/01/28 09:39:19;;;;;;;32.47;16.75;;;0.00;94.80;;;;;;5016176;28;20353;-89
2021/01/28 09:41:50;;;;;;;34.97;17.25;;;-0.10;94.40;;;;;;5015053;28;20032;-90
2021/01/28 09:44:31;;;;;;;33.47;17.15;;;0.00;94.90;;;;;;5022223;28;20022;-91
2021/01/28 09:47:17;;;;;;;;;;;0.00;94.80;;;;;;5028852;28;20108;-90
2021/01/28 09:49:45;;;;;;;41.22;17.77;;;0.00;94.80;;;;;;5015745;28;19921;-90
2021/01/28 09:52:22;;;;;;;39.90;20.27;;;0.00;94.60;;;;;;4999561;28;20029;-91
2021/01/28 09:54:57;;;;;;;39.30;20.00;;;0.00;94.60;;;;;;5014985;28;20057;-90
2021/01/28 09:57:23;;;;;;;40.30;21.27;;;0.00;94.60;;;;;;4998137;28;20126;-91
2021/01/28 09:59:49;;;;;;;33.42;18.25;;;0.00;94.50;;;;;;4998306;28;20026;-90
2021/01/28 10:02:20;;;;;;;34.22;18.25;;;0.00;94.40;;;;;;5016090;28;20049;-91
2021/01/28 10:04:46;;;;;;;33.75;18.67;;;0.00;94.50;;;;;;5015786;28;20025;-92
2021/01/28 10:07:12;;;;;;;29.92;16.52;;;0.00;94.40;;;;;;4998200;28;20029;-92
2021/01/28 10:09:38;;;;;;;30.33;15.68;;;0.00;94.50;;;;;;4998649;28;20029;-92
2021/01/28 10:12:05;;;;;;;33.22;17.42;;;0.10;94.70;;;;;;4998407;28;20030;-91
2021/01/28 10:14:31;;;;;;;26.25;15.85;;;0.10;94.50;;;;;;5015531;28;20022;-89
2021/01/28 10:16:56;;;;;;;35.95;20.05;;;0.00;94.30;;;;;;5015844;28;20422;-90
2021/01/28 10:19:22;;;;;;;29.20;15.90;;;0.00;94.40;;;;;;4998028;28;20026;-91
2021/01/28 10:21:48;;;;;;;39.38;21.25;;;0.00;94.10;;;;;;5015060;28;20105;-91
2021/01/28 10:24:13;;;;;;;40.63;23.23;;;0.00;94.20;;;;;;4997927;28;20029;-91
2021/01/28 10:26:39;;;;;;;38.40;21.35;;;0.00;94.10;;;;;;5015419;28;20032;-90
2021/01/28 10:29:05;;;;;;;42.45;21.15;;;-0.10;93.90;;;;;;4997742;28;20109;-92
2021/01/28 10:31:31;;;;;;;45.55;22.55;;;0.00;94.30;;;;;;5033907;28;20471;-91
2021/01/28 10:33:56;;;;;;;44.00;21.58;;;-0.10;94.20;;;;;;5018013;28;20021;-90
2021/01/28 10:36:22;;;;;;;65.38;31.20;;;-0.10;93.90;;;;;;5019030;28;20164;-91
2021/01/28 10:38:48;;;;;;;35.90;19.30;;;-0.10;94.10;;;;;;5033849;28;20029;-95
2021/01/28 10:41:14;;;;;;;45.10;23.23;;;-0.10;94.10;;;;;;5022934;28;20041;-92
2021/01/28 10:43:39;;;;;;;37.53;20.70;;;-0.10;94.10;;;;;;5021802;28;20022;-92
2021/01/28 10:46:05;;;;;;;35.13;18.98;;;0.00;94.30;;;;;;5016903;28;20100;-90
2021/01/28 10:48:31;;;;;;;49.38;23.13;;;0.00;94.10;;;;;;5036252;28;20053;-91
2021/01/28 10:50:56;;;;;;;47.10;23.77;;;0.00;94.20;;;;;;5019586;28;20096;-89
2021/01/28 10:53:22;;;;;;;41.22;19.25;;;0.00;94.20;;;;;;5020343;28;20116;-90
2021/01/28 10:55:48;;;;;;;37.80;20.40;;;0.10;94.40;;;;;;5025202;28;20103;-91
2021/01/28 10:58:14;;;;;;;39.17;20.45;;;0.10;94.10;;;;;;5018301;28;20029;-86
2021/01/28 11:00:39;;;;;;;42.70;21.55;;;0.10;94.00;;;;;;5017061;28;20140;-88
2021/01/28 11:03:05;;;;;;;41.38;23.60;;;0.20;94.10;;;;;;5016911;28;20060;-88
2021/01/28 11:05:36;;;;;;;38.67;21.30;;;0.10;93.80;;;;;;5033290;28;20021;-89
2021/01/28 11:08:04;;;;;;;49.72;23.67;;;0.10;94.20;;;;;;5033342;28;20032;-88
2021/01/28 11:10:31;;;;;;;46.67;23.33;;;0.10;93.80;;;;;;5034617;28;20034;-90
2021/01/28 11:12:58;;;;;;;53.67;23.33;;;0.10;94.00;;;;;;5016680;28;20032;-88
2021/01/28 11:15:28;;;;;;;72.13;29.60;;;0.20;94.10;;;;;;5016530;28;20029;-88
2021/01/28 11:17:53;;;;;;;56.38;23.90;;;0.20;93.90;;;;;;5016659;28;20048;-88
2021/01/28 11:20:20;;;;;;;126.10;50.58;;;0.20;94.00;;;;;;5034339;28;20028;-88
2021/01/28 11:22:46;;;;;;;41.45;21.10;;;0.10;93.60;;;;;;5016697;28;20426;-88
2021/01/28 11:25:15;;;;;;;44.53;21.45;;;0.10;93.80;;;;;;5016817;28;20033;-89
2021/01/28 11:27:41;;;;;;;36.20;19.92;;;0.10;93.80;;;;;;5019266;28;20543;-90
2021/01/28 11:30:11;;;;;;;43.20;20.45;;;0.00;93.80;;;;;;5016920;28;20069;-90
2021/01/28 11:32:36;;;;;;;37.78;17.98;;;0.00;93.80;;;;;;5016960;28;20025;-89
2021/01/28 11:35:03;;;;;;;40.83;21.33;;;0.00;93.90;;;;;;5016534;28;20497;-90
2021/01/28 11:37:29;;;;;;;28.75;16.67;;;0.00;93.80;;;;;;5016290;28;20026;-92
2021/01/28 11:39:54;;;;;;;32.70;17.13;;;0.00;93.70;;;;;;5016516;28;20029;-93
2021/01/28 11:42:20;;;;;;;35.10;18.65;;;0.00;93.80;;;;;;5016758;28;20025;-93
2021/01/28 11:44:46;;;;;;;57.90;27.20;;;0.00;93.90;;;;;;5016787;28;20551;-91
2021/01/28 11:47:12;;;;;;;63.40;31.15;;;0.00;93.90;;;;;;5016195;28;20435;-90
2021/01/28 11:49:38;;;;;;;80.93;35.53;;;0.00;94.00;;;;;;5016314;28;20113;-89
2021/01/28 11:52:04;;;;;;;58.08;27.10;;;-0.10;93.80;;;;;;5016740;28;20053;-90
2021/01/28 11:54:30;;;;;;;66.95;29.50;;;0.00;94.10;;;;;;5016410;28;20543;-90
2021/01/28 11:56:55;;;;;;;55.00;26.80;;;0.00;94.20;;;;;;5034865;28;20025;-90
2021/01/28 11:59:21;;;;;;;67.97;34.85;;;0.00;94.30;;;;;;5020088;28;20034;-89
2021/01/28 12:01:47;;;;;;;49.00;26.15;;;-0.10;94.30;;;;;;5037218;28;20430;-92
2021/01/28 12:04:14;;;;;;;46.22;26.02;;;-0.10;94.50;;;;;;5020126;28;20029;-91
2021/01/28 12:06:40;;;;;;;62.10;34.20;;;0.00;94.60;;;;;;5020280;28;20029;-90
2021/01/28 12:09:06;;;;;;;55.30;28.73;;;0.00;94.60;;;;;;5020202;28;20108;-92
2021/01/28 12:11:32;;;;;;;55.63;29.58;;;0.00;94.60;;;;;;5020278;28;20026;-91
2021/01/28 12:13:58;;;;;;;46.17;23.17;;;0.00;94.50;;;;;;5020295;28;20111;-91
2021/01/28 12:16:23;;;;;;;84.95;37.47;;;0.00;94.60;;;;;;5019747;28;20487;-92
2021/01/28 12:18:49;;;;;;;170.75;58.97;;;0.10;94.60;;;;;;5019780;28;20566;-91
2021/01/28 12:21:15;;;;;;;131.48;49.83;;;0.10;94.60;;;;;;5036185;28;20025;-91
2021/01/28 12:23:41;;;;;;;53.95;27.00;;;0.10;94.70;;;;;;5036567;28;20033;-92
2021/01/28 12:26:06;;;;;;;43.65;22.67;;;0.10;94.60;;;;;;5019620;28;20029;-91
2021/01/28 12:28:33;;;;;;;43.20;21.95;;;0.00;94.50;;;;;;5019706;28;20025;-92
2021/01/28 12:30:59;;;;;;;36.55;18.65;;;0.00;94.60;;;;;;5019644;28;20038;-91
2021/01/28 12:33:24;;;;;;;35.78;18.23;;;0.10;94.60;;;;;;5019756;28;20136;-92
2021/01/28 12:35:50;;;;;;;36.50;19.75;;;0.00;94.60;;;;;;5019612;28;20446;-93
2021/01/28 12:38:16;;;;;;;35.13;18.48;;;0.00;94.60;;;;;;5019732;28;20041;-93
2021/01/28 12:40:42;;;;;;;35.42;19.83;;;0.10;94.60;;;;;;5035618;28;20049;-91
2021/01/28 12:43:08;;;;;;;41.17;19.45;;;0.00;94.60;;;;;;5019509;28;20471;-93
2021/01/28 12:45:34;;;;;;;39.28;21.10;;;0.00;94.90;;;;;;5019316;28;20065;-92
2021/01/28 12:48:00;;;;;;;35.35;18.00;;;-0.10;94.80;;;;;;5019265;28;20171;-93
2021/01/28 12:50:27;;;;;;;40.92;19.45;;;-0.10;94.90;;;;;;5035688;28;20108;-92
2021/01/28 12:52:52;;;;;;;33.83;17.52;;;-0.10;94.90;;;;;;5019725;28;20030;-92